createdAt,value
2019-03-05T00:01:51.570Z,11.47
2019-03-05T00:04:17.847Z,9.00
2019-03-05T00:06:44.043Z,7.40
2019-03-05T00:09:12.181Z,8.70
2019-03-05T00:11:38.348Z,11.40
2019-03-05T00:14:04.644Z,8.97
2019-03-05T00:16:30.916Z,7.20
2019-03-05T00:18:57.128Z,9.03
2019-03-05T00:21:23.322Z,10.43
2019-03-05T00:23:52.488Z,9.50
2019-03-05T00:26:31.047Z,9.10
2019-03-05T00:29:23.825Z,11.03
2019-03-05T00:31:50.127Z,8.93
2019-03-05T00:34:23.171Z,9.67
2019-03-05T00:36:55.711Z,12.80
2019-03-05T00:39:34.709Z,8.93
2019-03-05T00:42:24.251Z,8.40
2019-03-05T00:44:59.957Z,7.40
2019-03-05T00:47:47.537Z,8.97
2019-03-05T00:50:23.255Z,9.17
2019-03-05T00:53:02.054Z,9.27
2019-03-05T00:55:40.688Z,9.27
2019-03-05T00:58:16.465Z,9.30
2019-03-05T01:00:52.090Z,7.73
2019-03-05T01:03:55.257Z,6.60
2019-03-05T01:06:25.494Z,12.57
2019-03-05T01:08:54.163Z,8.27
2019-03-05T01:11:21.284Z,7.13
2019-03-05T01:13:47.547Z,13.03
2019-03-05T01:16:15.814Z,7.27
2019-03-05T01:18:42.136Z,9.73
2019-03-05T01:21:08.413Z,10.93
2019-03-05T01:23:34.581Z,12.20
2019-03-05T01:26:00.779Z,9.70
2019-03-05T01:28:26.937Z,11.27
2019-03-05T01:30:55.011Z,10.50
2019-03-05T01:33:21.617Z,9.47
2019-03-05T01:36:06.303Z,8.77
2019-03-05T01:38:34.421Z,8.87
2019-03-05T01:41:02.497Z,11.83
2019-03-05T01:43:28.769Z,12.57
2019-03-05T01:45:54.965Z,10.73
2019-03-05T01:48:21.234Z,10.73
2019-03-05T01:50:47.396Z,9.27
2019-03-05T01:53:13.583Z,7.70
2019-03-05T01:55:39.760Z,9.90
2019-03-05T01:58:05.955Z,7.63
2019-03-05T02:00:32.344Z,7.90
2019-03-05T02:02:58.514Z,11.13
2019-03-05T02:05:24.696Z,8.30
2019-03-05T02:07:51.513Z,8.43
2019-03-05T02:10:20.967Z,10.37
2019-03-05T02:12:47.234Z,10.20
2019-03-05T02:15:13.933Z,8.57
2019-03-05T02:17:40.108Z,10.27
2019-03-05T02:20:09.885Z,10.33
2019-03-05T02:22:36.192Z,8.37
2019-03-05T02:25:26.753Z,10.20
2019-03-05T02:28:11.764Z,8.17
2019-03-05T02:31:07.406Z,7.70
2019-03-05T02:33:40.465Z,8.77
2019-03-05T02:36:19.247Z,8.47
2019-03-05T02:39:22.620Z,7.30
2019-03-05T02:41:58.467Z,9.67
2019-03-05T02:44:31.275Z,6.77
2019-03-05T02:47:23.647Z,8.53
2019-03-05T02:49:56.297Z,6.17
2019-03-05T02:52:47.473Z,7.17
2019-03-05T02:55:32.337Z,8.70
2019-03-05T02:57:58.089Z,9.00
2019-03-05T03:00:26.152Z,8.33
2019-03-05T03:02:54.256Z,8.93
2019-03-05T03:05:24.945Z,9.73
2019-03-05T03:07:51.113Z,6.90
2019-03-05T03:10:21.623Z,7.60
2019-03-05T03:12:48.063Z,9.33
2019-03-05T03:15:14.229Z,9.10
2019-03-05T03:17:40.539Z,9.50
2019-03-05T03:20:12.772Z,7.83
2019-03-05T03:22:39.044Z,7.60
2019-03-05T03:25:08.844Z,6.63
2019-03-05T03:27:35.013Z,6.73
2019-03-05T03:30:01.379Z,8.10
2019-03-05T03:32:27.585Z,6.83
2019-03-05T03:34:53.728Z,11.00
2019-03-05T03:37:19.890Z,10.60
2019-03-05T03:39:46.101Z,8.37
2019-03-05T03:42:12.260Z,8.63
2019-03-05T03:44:38.416Z,9.27
2019-03-05T03:47:04.614Z,7.33
2019-03-05T03:49:30.788Z,6.93
2019-03-05T03:51:57.046Z,11.07
2019-03-05T03:54:23.250Z,7.20
2019-03-05T03:56:49.614Z,12.43
2019-03-05T03:59:15.766Z,7.63
2019-03-05T04:01:41.969Z,7.03
2019-03-05T04:04:08.136Z,7.47
2019-03-05T04:06:34.306Z,7.50
2019-03-05T04:09:00.488Z,5.80
2019-03-05T04:11:26.656Z,7.73
2019-03-05T04:13:52.829Z,8.73
2019-03-05T04:16:19.063Z,9.67
2019-03-05T04:18:45.238Z,10.27
2019-03-05T04:21:11.504Z,9.47
2019-03-05T04:23:37.714Z,9.93
2019-03-05T04:26:03.871Z,8.60
2019-03-05T04:28:30.047Z,9.50
2019-03-05T04:30:56.401Z,7.90
2019-03-05T04:33:22.606Z,7.97
2019-03-05T04:35:48.756Z,10.37
2019-03-05T04:38:14.979Z,7.57
2019-03-05T04:40:41.131Z,8.87
2019-03-05T04:43:07.299Z,9.43
2019-03-05T04:45:40.395Z,11.93
2019-03-05T04:48:06.560Z,13.73
2019-03-05T04:50:34.624Z,10.83
2019-03-05T04:53:00.816Z,12.67
2019-03-05T04:55:26.980Z,10.53
2019-03-05T04:57:53.138Z,14.50
2019-03-05T05:00:19.538Z,9.90
2019-03-05T05:02:45.710Z,9.40
2019-03-05T05:05:11.871Z,6.40
2019-03-05T05:07:38.080Z,10.37
2019-03-05T05:10:06.660Z,7.73
2019-03-05T05:12:32.844Z,8.17
2019-03-05T05:14:59.042Z,9.30
2019-03-05T05:17:25.363Z,8.87
2019-03-05T05:19:51.597Z,7.77
2019-03-05T05:22:17.839Z,12.57
2019-03-05T05:24:44.004Z,10.13
2019-03-05T05:27:10.178Z,7.47
2019-03-05T05:29:36.382Z,10.40
2019-03-05T05:32:02.561Z,8.97
2019-03-05T05:34:28.739Z,8.40
2019-03-05T05:36:55.048Z,9.27
2019-03-05T05:39:58.212Z,8.83
2019-03-05T05:42:24.412Z,8.07
2019-03-05T05:44:50.686Z,6.87
2019-03-05T05:47:16.950Z,6.20
2019-03-05T05:49:43.144Z,7.63
2019-03-05T05:52:09.306Z,7.50
2019-03-05T05:54:35.567Z,9.83
2019-03-05T05:57:01.774Z,10.53
2019-03-05T05:59:27.928Z,8.17
2019-03-05T06:01:54.086Z,11.93
2019-03-05T06:04:20.295Z,6.47
2019-03-05T06:06:46.454Z,9.73
2019-03-05T06:09:12.719Z,10.83
2019-03-05T06:11:38.935Z,25.03
2019-03-05T06:14:05.095Z,14.63
2019-03-05T06:16:31.282Z,14.20
2019-03-05T06:18:58.523Z,9.23
2019-03-05T06:21:25.136Z,26.63
2019-03-05T06:23:51.291Z,16.17
2019-03-05T06:26:17.483Z,22.07
2019-03-05T06:28:43.644Z,19.83
2019-03-05T06:31:09.812Z,14.90
2019-03-05T06:33:36.007Z,24.47
2019-03-05T06:36:02.172Z,45.87
2019-03-05T06:38:28.332Z,17.83
2019-03-05T06:40:54.535Z,23.60
2019-03-05T06:43:20.807Z,50.90
2019-03-05T06:45:46.968Z,75.20
2019-03-05T06:48:13.156Z,26.57
2019-03-05T06:50:39.375Z,40.23
2019-03-05T06:53:05.682Z,21.50
2019-03-05T06:55:31.914Z,11.80
2019-03-05T06:57:58.036Z,11.90
2019-03-05T07:00:30.153Z,17.83
2019-03-05T07:02:56.446Z,24.77
2019-03-05T07:06:00.055Z,22.63
2019-03-05T07:08:26.250Z,25.37
2019-03-05T07:11:11.389Z,16.10
2019-03-05T07:13:37.601Z,14.17
2019-03-05T07:16:16.565Z,16.67
2019-03-05T07:18:45.755Z,25.20
2019-03-05T07:21:32.127Z,9.30
2019-03-05T07:24:20.080Z,13.13
2019-03-05T07:26:46.340Z,13.07
2019-03-05T07:29:12.495Z,14.63
2019-03-05T07:31:38.798Z,16.47
2019-03-05T07:34:07.017Z,18.23
2019-03-05T07:36:33.180Z,22.80
2019-03-05T07:38:59.500Z,21.80
2019-03-05T07:41:25.661Z,27.13
2019-03-05T07:43:51.820Z,33.87
2019-03-05T07:46:18.011Z,25.83
2019-03-05T07:48:44.177Z,26.47
2019-03-05T07:51:10.338Z,19.23
2019-03-05T07:53:36.541Z,28.27
2019-03-05T07:56:02.901Z,21.17
2019-03-05T07:58:29.061Z,15.83
2019-03-05T08:00:55.252Z,14.97
2019-03-05T08:03:21.409Z,13.27
2019-03-05T08:05:47.760Z,18.03
2019-03-05T08:08:51.196Z,12.93
2019-03-05T08:11:17.361Z,15.70
2019-03-05T08:14:05.501Z,14.73
2019-03-05T08:16:31.761Z,16.97
2019-03-05T08:18:57.928Z,22.10
2019-03-05T08:21:24.137Z,16.40
2019-03-05T08:23:50.298Z,11.10
2019-03-05T08:26:16.457Z,20.47
2019-03-05T08:28:42.756Z,13.90
2019-03-05T08:31:09.215Z,20.17
2019-03-05T08:33:35.376Z,13.00
2019-03-05T08:36:01.582Z,15.63
2019-03-05T08:38:27.748Z,19.30
2019-03-05T08:40:54.385Z,13.10
2019-03-05T08:43:20.577Z,7.70
2019-03-05T08:45:46.805Z,5.87
2019-03-05T08:48:12.989Z,10.40
2019-03-05T08:50:39.201Z,6.50
2019-03-05T08:53:05.355Z,8.07
2019-03-05T08:55:31.525Z,11.17
2019-03-05T08:57:57.696Z,6.67
2019-03-05T09:00:23.851Z,6.67
2019-03-05T09:02:50.016Z,5.63
2019-03-05T09:05:18.110Z,5.67
2019-03-05T09:07:44.771Z,4.20
2019-03-05T09:10:18.329Z,5.37
2019-03-05T09:12:44.628Z,4.87
2019-03-05T09:15:16.836Z,10.90
2019-03-05T09:17:43.195Z,6.77
2019-03-05T09:20:12.391Z,5.07
2019-03-05T09:22:39.037Z,3.83
2019-03-05T09:25:12.233Z,5.43
2019-03-05T09:27:38.526Z,4.43
2019-03-05T09:30:22.073Z,4.50
2019-03-05T09:32:48.676Z,3.27
2019-03-05T09:35:15.860Z,7.87
2019-03-05T09:37:42.316Z,5.93
2019-03-05T09:40:11.728Z,6.57
2019-03-05T09:42:40.139Z,3.47
2019-03-05T09:45:09.655Z,6.17
2019-03-05T09:47:35.988Z,6.03
2019-03-05T09:50:05.151Z,7.20
2019-03-05T09:52:31.314Z,7.77
2019-03-05T09:54:57.619Z,5.67
2019-03-05T09:57:23.887Z,5.40
2019-03-05T09:59:50.149Z,4.63
2019-03-05T10:02:16.355Z,5.57
2019-03-05T10:04:42.622Z,4.63
2019-03-05T10:07:18.494Z,4.70
2019-03-05T10:09:36.967Z,4.50
2019-03-05T10:12:03.133Z,3.57
2019-03-05T10:14:29.403Z,7.73
2019-03-05T10:16:55.612Z,2.67
2019-03-05T10:19:21.770Z,7.33
2019-03-05T10:21:48.176Z,4.27
2019-03-05T10:24:14.476Z,5.83
2019-03-05T10:26:40.695Z,4.60
2019-03-05T10:29:06.987Z,5.07
2019-03-05T10:31:33.418Z,7.13
2019-03-05T10:33:59.570Z,6.73
2019-03-05T10:36:25.741Z,6.47
2019-03-05T10:38:57.163Z,8.57
2019-03-05T10:41:20.115Z,8.97
2019-03-05T10:43:46.271Z,5.53
2019-03-05T10:46:12.981Z,5.80
2019-03-05T10:48:39.141Z,10.17
2019-03-05T10:51:05.304Z,9.47
2019-03-05T10:53:32.201Z,3.40
2019-03-05T10:55:58.368Z,5.87
2019-03-05T10:58:33.426Z,7.30
2019-03-05T11:00:54.595Z,8.43
2019-03-05T11:03:23.471Z,7.17
2019-03-05T11:05:50.928Z,6.03
2019-03-05T11:08:19.222Z,6.67
2019-03-05T11:10:45.485Z,4.30
2019-03-05T11:13:12.043Z,7.00
2019-03-05T11:15:38.843Z,5.87
2019-03-05T11:18:06.704Z,5.37
2019-03-05T11:20:33.379Z,3.40
2019-03-05T11:22:59.574Z,4.53
2019-03-05T11:25:25.857Z,7.70
2019-03-05T11:27:52.019Z,6.30
2019-03-05T11:30:35.325Z,9.97
2019-03-05T11:32:52.289Z,9.10
2019-03-05T11:35:21.455Z,9.97
2019-03-05T11:37:47.762Z,6.90
2019-03-05T11:40:21.220Z,5.90
2019-03-05T11:42:48.495Z,7.07
2019-03-05T11:45:50.165Z,10.47
2019-03-05T11:48:16.437Z,6.33
2019-03-05T11:50:43.104Z,10.17
2019-03-05T11:53:09.302Z,4.37
2019-03-05T11:55:35.449Z,6.23
2019-03-05T11:58:01.617Z,6.77
2019-03-05T12:00:47.478Z,7.03
2019-03-05T12:03:13.744Z,5.93
2019-03-05T12:05:39.919Z,7.17
2019-03-05T12:08:06.118Z,6.93
2019-03-05T12:10:32.277Z,3.67
2019-03-05T12:12:58.443Z,4.53
2019-03-05T12:15:26.848Z,6.93
2019-03-05T12:17:53.000Z,7.17
2019-03-05T12:20:19.156Z,6.57
2019-03-05T12:22:45.344Z,6.53
2019-03-05T12:25:17.632Z,4.30
2019-03-05T12:27:44.094Z,6.73
2019-03-05T12:30:13.954Z,7.30
2019-03-05T12:32:40.107Z,6.00
2019-03-05T12:35:08.574Z,6.50
2019-03-05T12:37:34.774Z,6.80
2019-03-05T12:40:00.941Z,5.97
2019-03-05T12:42:27.217Z,8.93
2019-03-05T12:44:53.410Z,10.13
2019-03-05T12:47:19.582Z,7.30
2019-03-05T12:49:45.841Z,6.33
2019-03-05T12:52:12.036Z,5.47
2019-03-05T12:54:38.205Z,4.90
2019-03-05T12:57:04.486Z,7.00
2019-03-05T12:59:30.673Z,6.73
2019-03-05T13:01:56.832Z,14.20
2019-03-05T13:04:22.998Z,12.43
2019-03-05T13:06:49.196Z,7.77
2019-03-05T13:09:17.876Z,8.90
2019-03-05T13:11:46.594Z,5.73
2019-03-05T13:14:12.357Z,8.03
2019-03-05T13:16:39.447Z,5.33
2019-03-05T13:19:09.517Z,5.63
2019-03-05T13:21:34.947Z,9.83
2019-03-05T13:24:01.104Z,10.47
2019-03-05T13:26:27.268Z,7.67
2019-03-05T13:28:53.472Z,10.53
2019-03-05T13:31:19.782Z,6.80
2019-03-05T13:33:45.935Z,4.97
2019-03-05T13:36:13.466Z,4.27
2019-03-05T13:38:41.835Z,4.43
2019-03-05T13:41:07.869Z,6.70
2019-03-05T13:43:34.058Z,8.30
2019-03-05T13:46:00.213Z,3.73
2019-03-05T13:48:32.986Z,4.70
2019-03-05T13:51:19.528Z,8.13
2019-03-05T13:54:00.959Z,6.10
2019-03-05T13:56:55.655Z,5.60
2019-03-05T13:59:41.907Z,11.20
2019-03-05T14:02:08.503Z,8.07
2019-03-05T14:04:38.269Z,6.80
2019-03-05T14:07:23.354Z,11.67
2019-03-05T14:09:50.579Z,11.40
2019-03-05T14:12:16.793Z,6.37
2019-03-05T14:14:43.035Z,10.17
2019-03-05T14:17:13.767Z,6.97
2019-03-05T14:19:39.924Z,10.17
2019-03-05T14:22:06.247Z,8.73
2019-03-05T14:24:34.383Z,6.27
2019-03-05T14:27:00.908Z,7.27
2019-03-05T14:29:29.291Z,3.80
2019-03-05T14:31:56.355Z,5.17
2019-03-05T14:34:22.615Z,6.40
2019-03-05T14:36:48.857Z,6.07
2019-03-05T14:39:25.997Z,4.17
2019-03-05T14:41:52.315Z,9.20
2019-03-05T14:44:18.541Z,10.10
2019-03-05T14:46:49.130Z,9.13
2019-03-05T14:49:15.329Z,12.47
2019-03-05T14:51:41.483Z,12.50
2019-03-05T14:54:07.650Z,12.47
2019-03-05T14:56:33.955Z,8.73
2019-03-05T14:59:00.125Z,5.50
2019-03-05T15:01:26.253Z,4.33
2019-03-05T15:03:52.455Z,4.60
2019-03-05T15:06:18.825Z,6.93
2019-03-05T15:08:44.987Z,7.93
2019-03-05T15:11:11.321Z,7.73
2019-03-05T15:13:37.623Z,9.40
2019-03-05T15:16:03.877Z,9.73
2019-03-05T15:18:30.118Z,8.13
2019-03-05T15:20:56.303Z,9.17
2019-03-05T15:23:22.477Z,10.77
2019-03-05T15:25:49.100Z,6.60
2019-03-05T15:28:15.268Z,5.10
2019-03-05T15:30:41.587Z,6.53
2019-03-05T15:33:08.779Z,9.57
2019-03-05T15:35:34.945Z,8.43
2019-03-05T15:38:01.119Z,10.30
2019-03-05T15:40:27.687Z,20.97
2019-03-05T15:42:53.850Z,13.40
2019-03-05T15:45:21.503Z,14.37
2019-03-05T15:47:47.706Z,8.53
2019-03-05T15:50:15.963Z,10.50
2019-03-05T15:52:44.156Z,7.40
2019-03-05T15:55:14.548Z,8.43
2019-03-05T15:57:40.710Z,9.37
2019-03-05T16:00:28.852Z,6.27
2019-03-05T16:02:55.069Z,4.23
2019-03-05T16:05:22.126Z,7.30
2019-03-05T16:07:49.305Z,6.03
2019-03-05T16:10:17.218Z,4.40
2019-03-05T16:12:44.450Z,9.27
2019-03-05T16:15:12.442Z,7.07
2019-03-05T16:17:38.597Z,6.83
2019-03-05T16:20:07.961Z,12.37
2019-03-05T16:22:34.162Z,12.73
2019-03-05T16:25:00.319Z,15.17
2019-03-05T16:27:30.072Z,12.13
2019-03-05T16:29:55.715Z,10.60
2019-03-05T16:32:33.500Z,8.70
2019-03-05T16:35:13.649Z,9.87
2019-03-05T16:37:57.730Z,12.07
2019-03-05T16:40:28.928Z,9.13
2019-03-05T16:42:57.011Z,7.63
2019-03-05T16:45:30.723Z,10.67
2019-03-05T16:48:10.560Z,8.20
2019-03-05T16:50:47.746Z,15.10
2019-03-05T16:53:24.654Z,7.80
2019-03-05T16:56:01.326Z,10.60
2019-03-05T17:01:29.090Z,8.83
2019-03-05T17:03:59.974Z,8.83
2019-03-05T17:06:44.856Z,10.10
2019-03-05T17:09:15.961Z,8.07
2019-03-05T17:11:55.673Z,9.67
2019-03-05T17:14:21.832Z,6.43
2019-03-05T17:16:48.089Z,11.93
2019-03-05T17:19:14.393Z,10.73
2019-03-05T17:21:40.553Z,11.23
2019-03-05T17:24:06.748Z,12.17
2019-03-05T17:26:32.935Z,6.10
2019-03-05T17:28:59.092Z,7.30
2019-03-05T17:31:25.243Z,6.93
2019-03-05T17:33:51.450Z,7.70
2019-03-05T17:36:18.104Z,3.20
2019-03-05T17:38:44.262Z,4.65
2019-03-05T17:41:10.453Z,5.53
2019-03-05T17:43:39.387Z,7.73
2019-03-05T17:46:05.670Z,6.93
2019-03-05T17:48:31.856Z,10.73
2019-03-05T17:50:58.011Z,9.23
2019-03-05T17:53:24.170Z,8.20
2019-03-05T17:55:50.363Z,2.83
2019-03-05T17:58:16.547Z,5.67
2019-03-05T18:00:44.611Z,5.13
2019-03-05T18:03:10.809Z,5.13
2019-03-05T18:05:36.967Z,6.53
2019-03-05T18:08:03.624Z,4.67
2019-03-05T18:10:29.870Z,3.97
2019-03-05T18:12:56.027Z,6.10
2019-03-05T18:15:22.203Z,3.90
2019-03-05T18:17:48.494Z,3.63
2019-03-05T18:20:19.491Z,3.13
2019-03-05T18:22:45.953Z,6.70
2019-03-05T18:25:14.148Z,7.87
2019-03-05T18:27:40.733Z,5.10
2019-03-05T18:30:19.735Z,5.10
2019-03-05T18:32:46.074Z,3.80
2019-03-05T18:35:12.947Z,3.80
2019-03-05T18:37:39.248Z,5.00
2019-03-05T18:40:11.423Z,4.60
2019-03-05T18:42:37.580Z,6.03
2019-03-05T18:45:07.362Z,7.73
2019-03-05T18:47:33.977Z,4.10
2019-03-05T18:50:00.287Z,5.07
2019-03-05T18:52:26.530Z,2.60
2019-03-05T18:54:52.699Z,4.00
2019-03-05T18:57:18.846Z,5.97
2019-03-05T18:59:45.039Z,6.67
2019-03-05T19:02:11.413Z,8.73
2019-03-05T19:04:37.582Z,5.90
2019-03-05T19:07:03.895Z,10.87
2019-03-05T19:09:30.054Z,17.17
2019-03-05T19:11:56.332Z,4.90
2019-03-05T19:14:22.653Z,6.07
2019-03-05T19:16:48.809Z,6.33
2019-03-05T19:19:14.976Z,3.40
2019-03-05T19:21:41.177Z,5.67
2019-03-05T19:24:07.344Z,4.60
2019-03-05T19:26:33.507Z,3.77
2019-03-05T19:28:59.724Z,3.00
2019-03-05T19:31:25.887Z,3.03
2019-03-05T19:33:52.041Z,3.10
2019-03-05T19:36:18.237Z,3.13
2019-03-05T19:38:44.455Z,5.30
2019-03-05T19:41:10.712Z,2.77
2019-03-05T19:43:37.014Z,3.07
2019-03-05T19:46:03.277Z,4.90
2019-03-05T19:48:29.442Z,5.73
2019-03-05T19:50:55.750Z,4.43
2019-03-05T19:53:21.910Z,3.20
2019-03-05T19:55:48.181Z,6.37
2019-03-05T19:58:14.395Z,2.93
2019-03-05T20:00:54.352Z,5.87
2019-03-05T20:03:20.560Z,5.27
2019-03-05T20:05:46.716Z,4.77
2019-03-05T20:08:12.884Z,4.67
2019-03-05T20:10:39.083Z,4.63
2019-03-05T20:13:05.247Z,6.37
2019-03-05T20:15:31.416Z,7.93
2019-03-05T20:17:59.113Z,10.40
2019-03-05T20:20:25.605Z,10.13
2019-03-05T20:22:51.974Z,6.83
2019-03-05T20:25:19.749Z,5.53
2019-03-05T20:27:47.816Z,4.77
2019-03-05T20:30:16.489Z,4.53
2019-03-05T20:32:42.782Z,4.23
2019-03-05T20:35:08.948Z,4.53
2019-03-05T20:37:35.108Z,4.50
2019-03-05T20:40:02.833Z,6.70
2019-03-05T20:42:29.317Z,5.23
2019-03-05T20:44:55.485Z,4.67
2019-03-05T20:47:21.790Z,5.40
2019-03-05T20:49:47.955Z,4.57
2019-03-05T20:52:14.124Z,5.27
2019-03-05T20:54:40.328Z,6.07
2019-03-05T20:57:06.589Z,6.00
2019-03-05T20:59:33.053Z,6.53
2019-03-05T21:01:59.359Z,4.77
2019-03-05T21:04:25.535Z,4.70
2019-03-05T21:06:51.698Z,3.80
2019-03-05T21:09:19.499Z,5.50
2019-03-05T21:11:45.672Z,6.10
2019-03-05T21:14:12.335Z,5.57
2019-03-05T21:16:38.547Z,5.87
2019-03-05T21:19:04.716Z,5.73
2019-03-05T21:21:30.892Z,4.73
2019-03-05T21:23:57.193Z,6.80
2019-03-05T21:26:23.353Z,6.57
2019-03-05T21:28:50.326Z,7.23
2019-03-05T21:31:16.545Z,6.27
2019-03-05T21:33:42.722Z,5.50
2019-03-05T21:36:08.880Z,7.67
2019-03-05T21:38:35.086Z,4.30
2019-03-05T21:41:01.462Z,5.13
2019-03-05T21:43:28.028Z,6.13
2019-03-05T21:45:57.831Z,5.20
2019-03-05T21:48:23.995Z,7.43
2019-03-05T21:50:50.156Z,5.83
2019-03-05T21:53:16.439Z,6.53
2019-03-05T21:55:42.696Z,9.33
2019-03-05T21:58:10.071Z,6.67
2019-03-05T22:00:38.083Z,4.47
2019-03-05T22:03:04.749Z,6.40
2019-03-05T22:05:30.915Z,7.80
2019-03-05T22:07:57.100Z,7.27
2019-03-05T22:10:23.268Z,8.67
2019-03-05T22:12:49.945Z,9.63
2019-03-05T22:15:18.639Z,9.53
2019-03-05T22:17:44.789Z,7.60
2019-03-05T22:20:13.560Z,6.17
2019-03-05T22:22:39.772Z,8.43
2019-03-05T22:25:09.227Z,8.37
2019-03-05T22:27:35.504Z,8.97
2019-03-05T22:30:02.210Z,7.23
2019-03-05T22:32:28.375Z,7.17
2019-03-05T22:34:54.647Z,5.57
2019-03-05T22:37:21.820Z,10.27
2019-03-05T22:39:47.985Z,7.73
2019-03-05T22:42:14.504Z,8.50
2019-03-05T22:44:40.702Z,10.80
2019-03-05T22:47:06.885Z,7.30
2019-03-05T22:49:33.051Z,12.60
2019-03-05T22:51:59.258Z,8.37
2019-03-05T22:54:25.431Z,6.50
2019-03-05T22:56:51.614Z,7.43
2019-03-05T22:59:17.812Z,7.97
2019-03-05T23:01:44.590Z,6.23
2019-03-05T23:04:10.956Z,8.57
2019-03-05T23:06:37.554Z,7.43
2019-03-05T23:09:06.824Z,6.93
2019-03-05T23:11:32.988Z,8.83
2019-03-05T23:13:59.197Z,10.87
2019-03-05T23:16:25.471Z,11.37
2019-03-05T23:18:51.628Z,8.47
2019-03-05T23:21:17.939Z,8.90
2019-03-05T23:23:44.113Z,8.13
2019-03-05T23:26:11.079Z,7.87
2019-03-05T23:28:37.579Z,8.50
2019-03-05T23:31:03.946Z,9.57
2019-03-05T23:33:30.108Z,9.30
2019-03-05T23:35:56.313Z,8.10
2019-03-05T23:38:22.584Z,9.27
2019-03-05T23:40:48.847Z,8.40
2019-03-05T23:43:15.082Z,8.50
2019-03-05T23:45:41.246Z,6.70
2019-03-05T23:48:07.409Z,7.43
2019-03-05T23:50:33.599Z,7.37
2019-03-05T23:52:59.768Z,9.60
2019-03-05T23:55:26.326Z,9.27
2019-03-05T23:57:52.537Z,8.77
